Time;durP1;ratioP1;P1;durP2;ratioP2;P2;SDS_P1;SDS_P2;PMS_P1;PMS_P2;Temp;Humidity;BMP_temperature;BMP_pressure;BME280_temperature;BME280_humidity;BME280_pressure;Samples;Min_cycle;Max_cycle;Signal;HPM_P1;HPM_P2
2022/12/29 00:00:08;;;;;;;2.40;2.20;;;7.10;23.70;;;;;;5030576;28;21071;-52
2022/12/29 00:02:36;;;;;;;2.13;1.90;;;7.10;26.80;;;;;;5029606;28;20456;-52
2022/12/29 00:05:03;;;;;;;2.13;1.93;;;7.20;33.70;;;;;;5033791;28;20466;-55
2022/12/29 00:07:29;;;;;;;2.50;1.60;;;7.30;35.20;;;;;;5034682;28;20517;-52
2022/12/29 00:09:56;;;;;;;4.63;1.80;;;7.30;37.50;;;;;;5029352;28;20461;-51
2022/12/29 00:12:22;;;;;;;2.40;1.77;;;7.30;39.50;;;;;;5031725;28;20547;-52
2022/12/29 00:17:32;;;;;;;2.00;1.40;;;7.40;54.70;;;;;;5023258;28;20468;-51
2022/12/29 00:36:33;;;;;;;4.20;1.93;;;7.50;52.80;;;;;;5044532;28;20927;-51
2022/12/29 00:44:32;;;;;;;1.50;1.40;;;7.50;48.30;;;;;;5034453;28;20441;-52
2022/12/29 00:47:02;;;;;;;3.10;1.70;;;7.40;46.80;;;;;;5033724;28;20518;-53
2022/12/29 00:49:30;;;;;;;1.50;1.40;;;7.40;39.50;;;;;;5039477;28;20572;-51
2022/12/29 00:52:00;;;;;;;1.70;1.60;;;7.40;39.70;;;;;;5035485;28;20867;-52
2022/12/29 00:54:28;;;;;;;4.17;1.83;;;7.40;42.00;;;;;;5036949;28;20896;-53
2022/12/29 00:56:54;;;;;;;2.27;2.10;;;7.50;46.30;;;;;;5041286;28;20578;-54
2022/12/29 00:59:23;;;;;;;2.07;1.70;;;7.50;49.90;;;;;;5034215;28;20597;-52
2022/12/29 01:01:50;;;;;;;2.60;1.80;;;7.50;51.50;;;;;;5031101;28;20466;-53
2022/12/29 01:04:17;;;;;;;2.90;1.83;;;7.50;46.60;;;;;;5037478;28;20553;-54
2022/12/29 01:06:43;;;;;;;4.57;2.10;;;7.50;42.10;;;;;;5031311;28;20488;-52
2022/12/29 01:11:56;;;;;;;2.00;1.73;;;7.50;33.60;;;;;;5041437;28;20469;-52
2022/12/29 01:14:23;;;;;;;3.40;1.63;;;7.40;32.20;;;;;;5035249;28;20554;-53
2022/12/29 01:16:50;;;;;;;2.10;2.00;;;7.40;27.60;;;;;;5031960;28;20637;-53
2022/12/29 01:19:18;;;;;;;1.57;1.57;;;7.40;25.40;;;;;;5031582;28;20517;-53
2022/12/29 01:21:44;;;;;;;2.07;1.97;;;7.40;24.70;;;;;;5033475;28;20566;-55
2022/12/29 01:24:12;;;;;;;3.30;2.10;;;7.30;22.60;;;;;;5033551;28;20554;-55
2022/12/29 01:26:39;;;;;;;1.70;1.60;;;7.30;21.30;;;;;;5032250;28;20579;-53
2022/12/29 01:29:06;;;;;;;5.93;2.40;;;7.30;22.50;;;;;;5035902;28;20497;-53
2022/12/29 01:31:32;;;;;;;3.30;1.90;;;7.30;22.20;;;;;;5041794;28;20483;-53
2022/12/29 01:33:59;;;;;;;2.90;1.57;;;7.30;22.40;;;;;;5031446;28;20496;-53
2022/12/29 01:36:26;;;;;;;2.10;1.90;;;7.30;20.00;;;;;;5035889;28;20511;-56
2022/12/29 01:38:52;;;;;;;2.63;2.00;;;7.30;73.10;;;;;;5033456;28;20567;-52
2022/12/29 01:41:20;;;;;;;2.47;2.03;;;7.30;77.40;;;;;;5033827;28;20515;-54
2022/12/29 01:43:49;;;;;;;1.90;1.63;;;7.40;23.80;;;;;;5037426;28;21073;-51
2022/12/29 01:46:23;;;;;;;5.40;2.17;;;7.40;25.20;;;;;;5032919;28;21496;-52
2022/12/29 01:48:52;;;;;;;3.63;1.60;;;7.40;20.00;;;;;;5031408;28;20469;-54
2022/12/29 01:51:18;;;;;;;1.60;1.50;;;7.40;83.30;;;;;;5032255;28;20508;-51
2022/12/29 01:53:46;;;;;;;2.17;2.07;;;7.30;89.00;;;;;;5033263;28;20998;-52
2022/12/29 01:56:17;;;;;;;4.30;1.97;;;7.30;99.90;;;;;;5037412;28;20905;-52
2022/12/29 01:58:48;;;;;;;2.20;2.10;;;7.30;99.90;;;;;;5032556;28;21003;-52
2022/12/29 02:01:19;;;;;;;3.30;1.87;;;7.30;99.90;;;;;;5030541;28;20573;-53
2022/12/29 02:03:45;;;;;;;2.10;1.90;;;7.30;99.90;;;;;;5032009;28;20458;-52
2022/12/29 02:06:17;;;;;;;3.00;1.70;;;7.30;99.90;;;;;;5030844;28;20565;-52
2022/12/29 02:08:46;;;;;;;1.70;1.60;;;7.30;99.90;;;;;;5036154;28;21031;-52
2022/12/29 02:11:13;;;;;;;2.20;2.10;;;7.30;99.90;;;;;;5034666;28;20455;-52
2022/12/29 02:13:40;;;;;;;2.00;1.90;;;7.20;99.90;;;;;;5032726;28;20525;-53
2022/12/29 02:16:26;;;;;;;6.87;1.87;;;7.30;99.90;;;;;;5032897;28;20651;-53
2022/12/29 02:19:05;;;;;;;4.40;2.10;;;7.20;99.90;;;;;;5027160;28;20502;-50
2022/12/29 02:21:57;;;;;;;2.27;2.10;;;7.20;99.90;;;;;;5033298;28;20578;-51
2022/12/29 02:25:12;;;;;;;2.00;1.90;;;7.20;99.90;;;;;;5034207;28;20980;-53
2022/12/29 02:27:52;;;;;;;1.80;1.70;;;7.30;99.90;;;;;;5032615;28;20507;-52
2022/12/29 02:30:41;;;;;;;2.40;2.07;;;7.30;99.90;;;;;;5038961;28;20490;-52
2022/12/29 02:33:16;;;;;;;2.80;2.60;;;7.30;99.90;;;;;;5032361;28;20522;-52
2022/12/29 02:35:49;;;;;;;2.57;2.00;;;7.30;99.90;;;;;;5031319;28;20492;-52
2022/12/29 02:38:24;;;;;;;1.77;1.67;;;7.30;99.90;;;;;;5032274;28;20837;-55
2022/12/29 02:40:58;;;;;;;1.70;1.60;;;7.40;99.90;;;;;;5032255;28;20482;-52
2022/12/29 02:43:27;;;;;;;1.70;1.60;;;7.40;81.70;;;;;;5027329;28;20546;-52
2022/12/29 02:45:59;;;;;;;2.00;1.73;;;7.40;73.80;;;;;;5031814;28;20561;-52
2022/12/29 02:48:31;;;;;;;1.70;1.60;;;7.40;21.60;;;;;;5031970;28;20479;-52
2022/12/29 02:51:02;;;;;;;3.63;2.20;;;7.50;26.30;;;;;;5030006;28;20542;-55
2022/12/29 02:56:16;;;;;;;1.70;1.60;;;7.70;49.00;;;;;;5028103;28;20478;-52
2022/12/29 02:58:42;;;;;;;1.77;1.67;;;7.70;51.00;;;;;;5035616;28;20997;-53
2022/12/29 03:01:23;;;;;;;1.70;1.60;;;7.70;52.30;;;;;;5031453;28;20479;-53
2022/12/29 03:04:04;;;;;;;1.60;1.50;;;7.80;57.80;;;;;;5030265;28;20614;-52
2022/12/29 03:06:37;;;;;;;3.67;1.50;;;7.80;63.30;;;;;;5031717;28;20574;-55
2022/12/29 03:09:16;;;;;;;6.17;1.67;;;7.80;64.20;;;;;;5030982;28;20878;-51
2022/12/29 03:17:31;;;;;;;3.27;1.60;;;8.00;76.80;;;;;;5034865;28;20582;-52
2022/12/29 03:20:04;;;;;;;2.00;1.63;;;8.00;79.00;;;;;;5031336;28;20550;-55
2022/12/29 03:22:35;;;;;;;1.27;1.17;;;8.00;84.10;;;;;;5032073;28;20491;-56
2022/12/29 03:25:06;;;;;;;1.50;1.40;;;8.00;89.20;;;;;;5028836;28;20475;-55
2022/12/29 03:27:37;;;;;;;1.57;1.47;;;8.10;91.50;;;;;;5028835;28;20479;-59
2022/12/29 03:30:06;;;;;;;1.70;1.60;;;8.10;92.60;;;;;;5031273;28;20469;-55
2022/12/29 03:32:38;;;;;;;4.60;1.50;;;8.20;98.60;;;;;;5028473;28;20988;-56
2022/12/29 03:35:08;;;;;;;2.30;1.50;;;8.20;97.30;;;;;;5024257;28;20502;-55
2022/12/29 03:37:38;;;;;;;1.50;1.43;;;8.10;93.70;;;;;;5032696;28;20605;-55
2022/12/29 03:40:06;;;;;;;1.47;1.37;;;8.20;96.30;;;;;;5035258;28;20467;-52
2022/12/29 03:42:36;;;;;;;2.07;1.87;;;8.30;99.90;;;;;;5029858;28;20907;-52
2022/12/29 03:45:05;;;;;;;2.60;1.50;;;8.30;99.90;;;;;;5030281;28;20575;-52
2022/12/29 03:47:31;;;;;;;3.47;1.90;;;8.40;99.90;;;;;;5030342;28;20901;-52
2022/12/29 03:49:59;;;;;;;1.37;1.27;;;8.50;99.90;;;;;;5028283;28;20512;-51
2022/12/29 03:52:26;;;;;;;3.00;1.80;;;8.50;99.90;;;;;;5034337;28;20498;-52
2022/12/29 03:54:52;;;;;;;2.50;1.70;;;8.60;99.90;;;;;;5032548;28;20558;-51
2022/12/29 03:57:19;;;;;;;2.70;1.80;;;8.70;99.90;;;;;;5031436;28;20512;-51
2022/12/29 03:59:45;;;;;;;1.60;1.50;;;8.70;99.90;;;;;;5027645;28;20466;-52
2022/12/29 04:02:12;;;;;;;1.80;1.50;;;8.70;99.90;;;;;;5029354;28;20511;-52
2022/12/29 04:04:38;;;;;;;1.70;1.60;;;8.80;99.90;;;;;;5032943;28;21012;-51
2022/12/29 04:07:06;;;;;;;1.83;1.20;;;8.80;99.90;;;;;;5029095;28;20575;-53
2022/12/29 04:09:33;;;;;;;1.60;1.50;;;8.90;99.90;;;;;;5030695;28;21007;-51
2022/12/29 04:11:59;;;;;;;3.47;1.63;;;8.90;99.90;;;;;;5034193;28;20467;-53
2022/12/29 04:14:26;;;;;;;2.67;1.47;;;8.90;99.90;;;;;;5028635;28;20499;-51
2022/12/29 04:16:53;;;;;;;1.60;1.50;;;8.90;99.90;;;;;;5025527;28;20487;-51
2022/12/29 04:19:19;;;;;;;1.70;1.10;;;9.00;99.90;;;;;;5032261;28;20509;-51
2022/12/29 04:21:46;;;;;;;3.93;1.80;;;9.00;99.90;;;;;;5035897;28;20509;-52
2022/12/29 04:24:14;;;;;;;3.70;1.70;;;9.00;99.90;;;;;;5029637;28;20539;-52
2022/12/29 04:26:42;;;;;;;1.80;1.70;;;9.10;99.90;;;;;;5030419;28;20508;-56
2022/12/29 04:29:08;;;;;;;4.10;1.70;;;9.10;99.90;;;;;;5030707;28;20470;-52
2022/12/29 04:31:35;;;;;;;1.40;1.30;;;9.10;99.90;;;;;;5033093;28;20550;-52
2022/12/29 04:34:01;;;;;;;1.27;1.27;;;9.20;99.90;;;;;;5028629;28;20491;-52
2022/12/29 04:36:28;;;;;;;1.70;1.60;;;9.20;99.90;;;;;;5031482;28;20463;-52
2022/12/29 04:38:54;;;;;;;1.63;1.53;;;9.10;99.90;;;;;;5034398;28;21012;-52
2022/12/29 04:41:22;;;;;;;1.73;1.63;;;9.10;99.90;;;;;;5033856;28;20507;-55
2022/12/29 04:43:49;;;;;;;2.70;1.67;;;9.10;99.90;;;;;;5031317;28;20454;-52
2022/12/29 04:46:16;;;;;;;1.30;1.20;;;9.20;99.90;;;;;;5033049;28;20499;-53
2022/12/29 04:48:42;;;;;;;1.20;1.20;;;9.10;99.90;;;;;;5030327;28;20450;-51
2022/12/29 04:51:09;;;;;;;2.40;1.40;;;9.20;99.90;;;;;;5029801;28;20484;-51
2022/12/29 04:53:35;;;;;;;1.47;1.40;;;9.20;99.90;;;;;;5032558;28;20474;-53
2022/12/29 04:56:02;;;;;;;2.00;1.50;;;9.20;99.90;;;;;;5025449;28;20561;-53
2022/12/29 04:58:30;;;;;;;2.40;1.70;;;9.30;99.90;;;;;;5030193;28;20563;-53
2022/12/29 05:00:57;;;;;;;1.20;1.20;;;9.30;99.90;;;;;;5033304;28;20586;-53
2022/12/29 05:03:23;;;;;;;1.80;1.70;;;9.40;99.90;;;;;;5033240;28;20540;-53
2022/12/29 05:05:50;;;;;;;1.50;1.40;;;9.40;99.90;;;;;;5026145;28;20554;-52
2022/12/29 05:08:16;;;;;;;1.57;1.13;;;9.30;99.90;;;;;;5033651;28;20502;-51
2022/12/29 05:10:46;;;;;;;1.63;1.40;;;9.40;99.90;;;;;;5031606;28;20502;-55
2022/12/29 05:13:12;;;;;;;5.53;1.77;;;9.50;99.90;;;;;;5032470;28;20462;-52
2022/12/29 05:15:40;;;;;;;3.57;2.27;;;9.40;99.90;;;;;;5031235;28;20522;-52
2022/12/29 05:18:07;;;;;;;1.93;1.73;;;9.50;99.90;;;;;;5029377;28;20455;-52
2022/12/29 05:20:33;;;;;;;1.73;1.63;;;9.50;99.90;;;;;;5032070;28;20462;-53
2022/12/29 05:23:00;;;;;;;4.30;2.13;;;9.50;99.90;;;;;;5031359;28;20550;-52
2022/12/29 05:25:26;;;;;;;4.40;1.80;;;9.60;99.90;;;;;;5033928;28;20499;-53
2022/12/29 05:27:53;;;;;;;2.27;1.60;;;9.60;99.90;;;;;;5032916;28;20523;-51
2022/12/29 05:30:20;;;;;;;2.13;1.53;;;9.60;99.90;;;;;;5043494;28;20547;-55
2022/12/29 05:32:47;;;;;;;2.90;2.10;;;9.50;99.90;;;;;;5034064;28;20538;-52
2022/12/29 05:35:14;;;;;;;3.90;2.00;;;9.60;99.90;;;;;;5028646;28;20557;-54
2022/12/29 05:37:41;;;;;;;3.40;1.50;;;9.80;99.90;;;;;;5033552;28;20553;-53
2022/12/29 05:40:09;;;;;;;2.30;2.20;;;9.70;99.90;;;;;;5037237;28;20527;-53
2022/12/29 05:42:35;;;;;;;1.30;1.30;;;9.80;99.90;;;;;;5029125;28;20596;-55
2022/12/29 05:45:02;;;;;;;1.53;1.43;;;9.80;99.90;;;;;;5034705;28;20454;-55
2022/12/29 05:47:28;;;;;;;1.37;1.27;;;9.80;99.90;;;;;;5033453;28;20495;-51
2022/12/29 05:49:56;;;;;;;3.23;1.47;;;9.90;99.90;;;;;;5032383;28;20474;-52
2022/12/29 05:52:23;;;;;;;1.50;1.40;;;9.90;88.90;;;;;;5033652;28;20513;-52
2022/12/29 05:54:49;;;;;;;4.30;1.53;;;9.90;99.90;;;;;;5034808;28;20521;-52
2022/12/29 05:57:16;;;;;;;1.50;1.40;;;10.10;75.10;;;;;;5033942;28;20503;-52
2022/12/29 05:59:42;;;;;;;1.77;1.60;;;10.10;86.60;;;;;;5037823;28;20495;-52
2022/12/29 06:02:10;;;;;;;1.53;1.47;;;10.10;95.90;;;;;;5030319;28;20570;-52
2022/12/29 06:04:36;;;;;;;1.63;1.53;;;10.00;98.20;;;;;;5031572;28;20503;-52
2022/12/29 06:07:04;;;;;;;1.70;1.60;;;10.10;99.90;;;;;;5038104;28;20487;-53
2022/12/29 06:09:31;;;;;;;2.00;1.90;;;10.00;99.90;;;;;;5027902;28;20872;-53
2022/12/29 06:11:57;;;;;;;1.13;1.03;;;9.90;99.90;;;;;;5023336;28;20486;-54
2022/12/29 06:14:24;;;;;;;2.33;1.63;;;9.80;99.90;;;;;;5037480;28;20551;-53
2022/12/29 06:16:50;;;;;;;1.37;1.27;;;9.90;99.90;;;;;;5032898;28;20484;-51
2022/12/29 06:19:17;;;;;;;1.70;1.60;;;9.80;99.90;;;;;;5038335;28;20493;-52
2022/12/29 06:21:43;;;;;;;3.33;1.80;;;9.80;99.90;;;;;;5030672;28;20479;-55
2022/12/29 06:24:11;;;;;;;1.80;1.70;;;9.90;99.90;;;;;;5031219;28;20495;-55
2022/12/29 06:26:38;;;;;;;1.10;1.10;;;10.00;99.90;;;;;;5034815;28;20486;-55
2022/12/29 06:29:05;;;;;;;1.53;1.20;;;10.10;99.90;;;;;;5032090;28;20489;-56
2022/12/29 06:31:31;;;;;;;1.57;1.47;;;10.10;99.90;;;;;;5030838;28;20463;-55
2022/12/29 06:33:58;;;;;;;2.03;1.80;;;10.10;99.90;;;;;;5034599;28;20513;-55
2022/12/29 06:36:24;;;;;;;1.00;1.00;;;10.10;97.80;;;;;;5031473;28;21013;-55
2022/12/29 06:38:52;;;;;;;1.70;1.60;;;10.20;80.30;;;;;;5032303;28;21422;-54
2022/12/29 06:41:20;;;;;;;1.80;1.70;;;10.30;24.70;;;;;;5041665;28;20525;-55
2022/12/29 06:43:46;;;;;;;1.30;1.30;;;10.30;25.30;;;;;;5029506;28;20529;-55
2022/12/29 06:46:13;;;;;;;1.43;1.43;;;10.30;22.90;;;;;;5033673;28;21155;-51
2022/12/29 06:48:41;;;;;;;1.50;1.50;;;10.20;21.50;;;;;;5023498;28;20471;-51
2022/12/29 06:51:08;;;;;;;2.50;1.77;;;10.20;23.70;;;;;;5032794;28;20505;-51
2022/12/29 06:53:35;;;;;;;4.63;2.40;;;10.30;24.20;;;;;;5029362;28;20550;-51
2022/12/29 06:56:01;;;;;;;1.73;1.63;;;10.30;25.50;;;;;;5031782;28;21000;-51
2022/12/29 06:58:29;;;;;;;1.40;1.30;;;10.30;28.00;;;;;;5033119;28;20494;-52
2022/12/29 07:00:55;;;;;;;1.20;1.10;;;10.30;27.00;;;;;;5033997;28;20455;-51
2022/12/29 07:03:22;;;;;;;2.13;1.50;;;10.20;23.50;;;;;;5031190;28;20503;-50
2022/12/29 07:05:49;;;;;;;8.63;1.60;;;10.20;24.30;;;;;;5039246;28;20472;-53
2022/12/29 07:08:15;;;;;;;1.67;1.60;;;10.20;25.60;;;;;;5034752;28;20459;-51
2022/12/29 07:10:42;;;;;;;1.50;1.40;;;10.30;27.90;;;;;;5037692;28;20463;-52
2022/12/29 07:13:08;;;;;;;2.03;1.27;;;10.30;28.20;;;;;;5035383;28;20831;-52
2022/12/29 07:15:37;;;;;;;1.37;1.27;;;10.30;26.80;;;;;;5027312;28;20443;-52
2022/12/29 07:18:03;;;;;;;1.30;1.30;;;10.30;27.30;;;;;;5032295;28;20507;-52
2022/12/29 07:20:30;;;;;;;1.37;1.27;;;10.30;25.50;;;;;;5029643;28;20491;-60
2022/12/29 07:22:57;;;;;;;1.50;1.30;;;10.20;24.40;;;;;;5032651;28;20507;-55
2022/12/29 07:25:23;;;;;;;3.23;1.10;;;10.30;80.30;;;;;;5031812;28;20457;-56
2022/12/29 07:27:50;;;;;;;1.67;1.40;;;10.30;21.50;;;;;;5030374;28;20578;-55
2022/12/29 07:30:17;;;;;;;1.60;1.50;;;10.30;25.50;;;;;;5030571;28;20459;-52
2022/12/29 07:32:45;;;;;;;1.60;1.43;;;10.30;25.10;;;;;;5030261;28;20492;-52
2022/12/29 07:35:11;;;;;;;1.73;1.30;;;10.30;25.30;;;;;;5032271;28;20502;-52
2022/12/29 07:37:38;;;;;;;1.47;1.40;;;10.30;23.90;;;;;;5039290;28;20506;-51
2022/12/29 07:40:06;;;;;;;2.30;1.50;;;10.30;22.60;;;;;;5030073;28;20888;-62
2022/12/29 07:42:32;;;;;;;2.77;1.40;;;10.30;20.80;;;;;;5034226;28;20819;-53
2022/12/29 07:44:59;;;;;;;1.33;1.33;;;10.30;80.70;;;;;;5036105;28;20502;-59
2022/12/29 07:47:26;;;;;;;1.70;1.60;;;10.30;91.50;;;;;;5034862;28;20573;-59
2022/12/29 07:49:54;;;;;;;1.03;1.03;;;10.30;88.70;;;;;;5030419;28;20562;-52
2022/12/29 07:52:20;;;;;;;0.98;0.90;;;10.30;84.80;;;;;;5028648;28;21508;-53
2022/12/29 07:54:47;;;;;;;4.97;1.63;;;10.40;79.80;;;;;;5032589;28;20204;-58
2022/12/29 07:57:13;;;;;;;1.73;1.43;;;10.40;96.50;;;;;;5023946;28;20518;-53
2022/12/29 07:59:40;;;;;;;1.10;1.10;;;10.40;87.10;;;;;;5022964;28;21330;-53
2022/12/29 08:02:07;;;;;;;1.60;1.50;;;10.40;96.30;;;;;;5022274;28;20630;-53
2022/12/29 08:04:33;;;;;;;3.33;1.50;;;10.40;21.50;;;;;;5027064;28;20550;-53
2022/12/29 08:07:01;;;;;;;1.50;1.40;;;10.50;21.00;;;;;;5025104;28;20570;-53
2022/12/29 08:09:28;;;;;;;1.50;1.40;;;10.40;74.20;;;;;;5026391;28;20595;-53
2022/12/29 08:11:55;;;;;;;1.90;1.60;;;10.40;75.80;;;;;;5019840;28;20547;-54
2022/12/29 08:14:21;;;;;;;1.50;1.40;;;10.50;20.00;;;;;;5027356;28;20887;-55
2022/12/29 08:16:48;;;;;;;1.43;1.40;;;10.40;21.00;;;;;;5021706;28;20516;-57
2022/12/29 08:19:15;;;;;;;2.00;1.40;;;10.40;21.60;;;;;;5021462;28;20486;-62
2022/12/29 08:21:41;;;;;;;1.30;1.30;;;10.50;22.70;;;;;;5025163;28;20459;-52
2022/12/29 08:24:10;;;;;;;1.87;1.40;;;10.50;75.60;;;;;;5020250;28;20558;-54
2022/12/29 08:26:37;;;;;;;1.40;1.30;;;10.50;82.20;;;;;;5022475;28;20476;-54
2022/12/29 08:29:03;;;;;;;7.67;1.50;;;10.40;87.20;;;;;;5028520;28;20498;-52
2022/12/29 08:31:30;;;;;;;2.07;1.87;;;10.40;99.90;;;;;;5021551;28;20590;-53
2022/12/29 08:33:56;;;;;;;1.30;1.20;;;10.50;21.40;;;;;;5026848;28;20864;-52
2022/12/29 08:36:23;;;;;;;3.90;1.23;;;10.50;22.70;;;;;;5026326;28;20494;-54
2022/12/29 08:38:49;;;;;;;3.70;1.20;;;10.40;79.60;;;;;;5026068;28;20474;-55
2022/12/29 08:41:17;;;;;;;2.50;1.33;;;10.40;73.90;;;;;;5024522;28;20554;-58
2022/12/29 08:43:46;;;;;;;3.70;1.37;;;10.40;20.70;;;;;;5026135;28;20519;-53
2022/12/29 08:46:13;;;;;;;1.13;1.13;;;10.50;22.60;;;;;;5028196;28;20572;-53
2022/12/29 08:48:40;;;;;;;1.70;1.60;;;10.50;24.30;;;;;;5030603;28;20486;-53
2022/12/29 08:51:06;;;;;;;1.33;1.23;;;10.50;23.90;;;;;;5031351;28;20518;-52
2022/12/29 08:53:34;;;;;;;2.07;1.60;;;10.60;28.40;;;;;;5027217;28;20817;-57
2022/12/29 08:56:01;;;;;;;1.50;1.40;;;10.70;31.80;;;;;;5028179;28;20526;-57
2022/12/29 08:58:29;;;;;;;1.70;1.60;;;10.70;34.80;;;;;;5029200;28;21035;-58
2022/12/29 09:00:56;;;;;;;2.33;1.57;;;10.90;40.10;;;;;;5030060;28;20662;-58
2022/12/29 09:03:26;;;;;;;1.60;1.50;;;11.00;44.90;;;;;;5028824;28;20583;-58
2022/12/29 09:05:54;;;;;;;1.30;1.10;;;11.00;49.10;;;;;;5028334;28;20466;-57
2022/12/29 09:08:22;;;;;;;1.33;1.33;;;11.10;51.80;;;;;;5025402;28;20562;-56
2022/12/29 09:10:49;;;;;;;3.67;1.40;;;11.10;50.50;;;;;;5027669;28;21040;-56
2022/12/29 09:13:16;;;;;;;1.30;1.20;;;11.00;49.00;;;;;;5029355;28;20542;-58
2022/12/29 09:15:44;;;;;;;1.73;1.60;;;10.90;46.70;;;;;;5027834;28;20550;-57
2022/12/29 09:18:12;;;;;;;1.30;1.10;;;10.90;44.60;;;;;;5028563;28;20976;-57
2022/12/29 09:20:39;;;;;;;1.57;1.10;;;11.00;45.20;;;;;;5031654;28;20490;-57
2022/12/29 09:23:06;;;;;;;3.13;1.33;;;11.00;49.00;;;;;;5030806;28;20611;-58
2022/12/29 09:25:33;;;;;;;1.97;1.20;;;11.10;52.00;;;;;;5028201;28;20472;-57
2022/12/29 09:28:02;;;;;;;1.30;1.20;;;11.20;51.90;;;;;;5027293;28;20528;-58
2022/12/29 09:30:28;;;;;;;3.90;1.40;;;11.20;54.70;;;;;;5031382;28;20458;-58
2022/12/29 09:32:56;;;;;;;1.43;1.37;;;11.30;57.60;;;;;;5030764;28;20550;-60
2022/12/29 09:35:23;;;;;;;1.70;1.50;;;11.60;71.70;;;;;;5029762;28;21009;-56
2022/12/29 09:37:49;;;;;;;2.20;1.57;;;11.70;74.50;;;;;;5024659;28;20526;-58
2022/12/29 09:40:29;;;;;;;1.13;1.10;;;11.90;89.00;;;;;;5033353;28;20929;-57
2022/12/29 09:43:08;;;;;;;1.63;1.53;;;11.80;86.00;;;;;;5029672;28;20524;-58
2022/12/29 09:45:40;;;;;;;2.13;2.03;;;12.00;87.30;;;;;;5031085;28;20471;-57
2022/12/29 09:48:17;;;;;;;1.30;1.30;;;12.10;92.40;;;;;;5025848;28;20974;-58
2022/12/29 09:50:49;;;;;;;1.43;1.33;;;12.50;99.90;;;;;;5028670;28;21320;-60
2022/12/29 09:53:22;;;;;;;4.90;1.67;;;12.80;99.90;;;;;;5022059;28;20451;-53
2022/12/29 09:55:51;;;;;;;1.13;1.13;;;12.60;99.90;;;;;;5027954;28;20907;-53
2022/12/29 09:58:25;;;;;;;1.47;1.20;;;12.60;99.90;;;;;;5031081;28;20907;-52
2022/12/29 10:00:57;;;;;;;1.67;1.67;;;12.10;99.90;;;;;;5024467;28;20463;-52
2022/12/29 10:03:28;;;;;;;1.20;1.20;;;11.90;96.40;;;;;;5023651;28;20631;-53
2022/12/29 10:06:04;;;;;;;1.53;1.43;;;11.80;84.10;;;;;;5022681;28;20548;-52
2022/12/29 10:08:35;;;;;;;1.30;1.20;;;11.80;81.50;;;;;;5023143;28;20452;-53
2022/12/29 10:11:10;;;;;;;2.40;1.43;;;11.90;81.10;;;;;;5016318;28;21210;-52
2022/12/29 10:13:49;;;;;;;1.63;1.43;;;11.90;85.30;;;;;;5021567;28;20597;-52
2022/12/29 10:16:19;;;;;;;1.50;1.40;;;12.10;92.40;;;;;;5022593;28;20570;-52
2022/12/29 10:19:27;;;;;;;2.63;1.60;;;12.30;96.00;;;;;;5028488;28;20551;-52
2022/12/29 10:22:08;;;;;;;2.07;1.97;;;12.90;99.90;;;;;;5023867;28;20960;-52
2022/12/29 10:24:38;;;;;;;1.33;1.30;;;13.10;99.90;;;;;;5027548;28;20705;-54
2022/12/29 10:27:10;;;;;;;1.77;1.40;;;13.10;99.90;;;;;;5023987;28;20569;-52
2022/12/29 10:29:39;;;;;;;2.20;0.93;;;13.20;99.90;;;;;;5025716;28;20509;-52
2022/12/29 10:32:12;;;;;;;4.80;1.70;;;12.90;99.90;;;;;;5023249;28;20455;-52
2022/12/29 10:34:43;;;;;;;4.67;1.40;;;13.20;99.90;;;;;;5026030;28;20551;-52
2022/12/29 10:37:22;;;;;;;1.50;1.40;;;13.30;99.90;;;;;;5028382;28;20582;-53
2022/12/29 10:39:51;;;;;;;1.20;1.10;;;13.40;99.90;;;;;;5032296;28;20454;-52
2022/12/29 10:42:26;;;;;;;1.97;1.30;;;13.60;99.90;;;;;;5026617;28;20546;-53
2022/12/29 10:44:54;;;;;;;1.17;1.07;;;13.50;99.90;;;;;;5028235;28;20455;-52
2022/12/29 10:47:24;;;;;;;1.30;1.20;;;13.00;99.90;;;;;;5026864;28;20487;-52
2022/12/29 10:49:51;;;;;;;1.47;1.13;;;12.80;99.90;;;;;;5035180;28;20539;-53
2022/12/29 10:52:23;;;;;;;1.20;1.10;;;12.70;99.90;;;;;;5029990;28;20539;-52
2022/12/29 10:54:54;;;;;;;1.13;1.13;;;12.60;99.90;;;;;;5025571;28;20491;-52
2022/12/29 10:57:27;;;;;;;1.20;1.10;;;12.50;99.90;;;;;;5030723;28;20544;-51
2022/12/29 10:59:54;;;;;;;1.00;1.00;;;12.40;99.90;;;;;;5016882;28;20530;-52
2022/12/29 11:02:38;;;;;;;1.13;1.10;;;12.50;99.90;;;;;;5028993;28;20551;-51
2022/12/29 11:05:17;;;;;;;2.00;1.70;;;12.50;99.90;;;;;;5028707;28;20602;-52
2022/12/29 11:07:47;;;;;;;5.13;1.20;;;12.50;99.90;;;;;;5026462;28;20566;-51
2022/12/29 11:10:20;;;;;;;1.63;1.43;;;12.50;99.90;;;;;;5027443;28;20549;-52
2022/12/29 11:12:57;;;;;;;1.73;1.20;;;12.50;99.90;;;;;;5027269;28;20468;-52
2022/12/29 11:15:24;;;;;;;3.37;1.40;;;12.60;99.90;;;;;;5028727;28;20458;-51
2022/12/29 11:17:52;;;;;;;1.47;1.20;;;12.60;99.90;;;;;;5028830;28;20518;-52
2022/12/29 11:20:31;;;;;;;3.43;0.93;;;12.50;99.90;;;;;;5030956;28;20492;-53
2022/12/29 11:23:00;;;;;;;1.40;1.30;;;12.50;99.90;;;;;;5027435;28;20522;-52
2022/12/29 11:25:28;;;;;;;7.70;1.40;;;12.50;99.90;;;;;;5027540;28;20455;-52
2022/12/29 11:28:00;;;;;;;3.37;1.80;;;12.50;99.90;;;;;;5028956;28;20520;-51
2022/12/29 11:30:30;;;;;;;1.13;1.00;;;12.60;99.90;;;;;;5029767;28;20491;-52
2022/12/29 11:32:57;;;;;;;3.60;1.17;;;12.60;99.90;;;;;;5030104;28;20547;-52
2022/12/29 11:35:32;;;;;;;1.70;1.60;;;12.50;99.90;;;;;;5026215;28;20551;-52
2022/12/29 11:38:02;;;;;;;9.93;1.00;;;12.40;79.90;;;;;;5025791;28;20577;-53
2022/12/29 11:40:29;;;;;;;1.23;1.00;;;12.30;79.80;;;;;;5026359;28;20578;-52
2022/12/29 11:42:59;;;;;;;0.90;0.90;;;12.20;67.80;;;;;;5024484;28;20573;-57
2022/12/29 11:45:28;;;;;;;1.10;1.10;;;12.00;51.50;;;;;;5026826;28;20455;-53
2022/12/29 11:47:58;;;;;;;1.03;0.93;;;11.80;37.60;;;;;;5026267;28;20487;-54
2022/12/29 11:50:29;;;;;;;2.10;1.00;;;11.70;28.10;;;;;;5028622;28;20490;-54
2022/12/29 11:53:01;;;;;;;1.40;1.30;;;11.70;30.30;;;;;;5025032;28;20543;-54
2022/12/29 11:55:29;;;;;;;1.37;1.27;;;11.70;23.80;;;;;;5030067;28;20463;-58
2022/12/29 11:58:01;;;;;;;2.60;1.33;;;11.70;28.70;;;;;;5025600;28;20571;-52
2022/12/29 12:00:29;;;;;;;1.43;1.13;;;11.80;28.30;;;;;;5029265;28;20956;-52
2022/12/29 12:02:58;;;;;;;1.03;0.93;;;11.70;34.90;;;;;;5031434;28;20479;-52
2022/12/29 12:05:34;;;;;;;1.30;0.93;;;11.80;47.40;;;;;;5032317;28;20484;-52
2022/12/29 12:08:10;;;;;;;1.10;1.00;;;11.80;47.00;;;;;;5031416;28;21054;-54
2022/12/29 12:10:42;;;;;;;0.87;0.87;;;11.80;47.70;;;;;;5030590;28;20545;-54
2022/12/29 12:13:19;;;;;;;1.80;1.10;;;11.80;44.50;;;;;;5033123;28;20860;-55
2022/12/29 12:15:50;;;;;;;1.87;1.00;;;11.70;41.60;;;;;;5030209;28;20877;-54
2022/12/29 12:18:22;;;;;;;2.03;1.37;;;11.60;31.10;;;;;;5029846;28;20563;-54
2022/12/29 12:20:53;;;;;;;1.10;1.10;;;11.40;88.40;;;;;;5029074;28;20955;-54
2022/12/29 12:23:33;;;;;;;1.00;0.90;;;11.30;99.90;;;;;;5030377;28;20570;-53
2022/12/29 12:26:05;;;;;;;0.87;0.87;;;11.20;99.90;;;;;;5027539;28;20455;-53
2022/12/29 12:28:40;;;;;;;1.23;1.00;;;11.00;99.90;;;;;;5032566;28;20893;-54
2022/12/29 12:31:16;;;;;;;0.90;0.77;;;10.90;99.90;;;;;;5033139;28;20497;-55
2022/12/29 12:33:48;;;;;;;2.27;0.90;;;10.70;99.90;;;;;;5026830;28;20483;-53
2022/12/29 12:36:32;;;;;;;1.23;1.10;;;10.50;99.90;;;;;;5033060;28;20873;-54
2022/12/29 12:39:06;;;;;;;1.30;1.07;;;10.40;99.90;;;;;;5029862;28;21012;-54
2022/12/29 12:41:43;;;;;;;2.00;1.10;;;10.30;99.90;;;;;;5039145;28;20507;-53
2022/12/29 12:44:16;;;;;;;1.03;1.00;;;10.40;99.90;;;;;;5031432;28;20573;-54
2022/12/29 12:47:07;;;;;;;1.00;1.00;;;10.40;99.90;;;;;;5030696;28;20564;-58
2022/12/29 12:50:00;;;;;;;3.23;1.23;;;10.60;99.90;;;;;;5030008;28;20539;-58
2022/12/29 12:52:33;;;;;;;0.87;0.87;;;10.80;99.90;;;;;;5029687;28;20906;-58
2022/12/29 12:55:14;;;;;;;0.90;0.90;;;11.10;99.90;;;;;;5024279;28;20513;-59
2022/12/29 12:57:50;;;;;;;0.90;0.90;;;11.30;99.90;;;;;;5027096;28;20587;-53
2022/12/29 13:00:19;;;;;;;1.57;0.90;;;11.20;99.90;;;;;;5031695;28;20456;-52
2022/12/29 13:03:04;;;;;;;1.90;0.80;;;11.20;99.90;;;;;;5032356;28;20605;-52
2022/12/29 13:05:41;;;;;;;0.90;0.90;;;11.30;99.90;;;;;;5031915;28;21025;-54
2022/12/29 13:08:45;;;;;;;1.33;0.80;;;11.60;99.90;;;;;;5030511;28;20494;-53
2022/12/29 13:11:20;;;;;;;1.23;0.97;;;11.50;28.00;;;;;;5032177;28;21021;-55
2022/12/29 13:14:02;;;;;;;1.10;0.87;;;11.40;77.80;;;;;;5031705;28;20497;-52
2022/12/29 13:16:38;;;;;;;0.60;0.60;;;11.30;21.90;;;;;;5032966;28;21000;-51
2022/12/29 13:19:11;;;;;;;1.10;0.83;;;11.30;20.50;;;;;;5030425;28;21036;-53
2022/12/29 13:21:52;;;;;;;1.73;1.03;;;11.20;27.10;;;;;;5026079;28;20555;-59
2022/12/29 13:24:26;;;;;;;1.33;1.10;;;11.20;30.80;;;;;;5027772;28;20511;-54
2022/12/29 13:27:00;;;;;;;1.20;1.10;;;11.40;32.20;;;;;;5031209;28;20936;-58
2022/12/29 13:29:33;;;;;;;1.93;0.80;;;11.30;32.40;;;;;;5030380;28;20904;-53
2022/12/29 13:32:13;;;;;;;0.80;0.80;;;11.20;33.70;;;;;;5028987;28;20555;-54
2022/12/29 13:34:48;;;;;;;1.43;0.83;;;11.20;31.30;;;;;;5030859;28;20455;-56
2022/12/29 13:37:18;;;;;;;0.73;0.73;;;11.30;37.50;;;;;;5031531;28;20568;-53
2022/12/29 13:39:51;;;;;;;0.93;0.90;;;11.20;34.70;;;;;;5026557;28;20467;-55